logo
Rechercher aéroport 
image banner adimage banner adimage banner ad
image banner ad

HKHA - Hall Strip

Situé à , Kenya

ICAO - , IATA -

Données fournies par Airmate  

Information générale

Coordonnées: N2°55'49" E37°4'3"
Élévation : 2433 feet MSL.
 
Voir autres Aéroports à Eastern Province

Données opérationnelles

Special qualification required
Heure actuelle UTC:
Heure actuelle locale:
Météo à : - ( 0 km )
METAR: KPKV 240703Z AUTO 17007KT 5SM BR CLR 27/26 A2976 RMK AO2
Voir NOTAMs / SUP AIP / TFR affectant cet aéroport [VIEW]
Fréquences de communication: [VIEW]

Pistes:

Identifiant RWYQFULongueur (ft)Largeur (ft)SurfaceLDA (ft)
0600UNK
2400UNK

Coordonnées de l'aéroport

Adresse: Kenya

Vue satellite de HKHA